sensor_id;sensor_type;location;lat;lon;timestamp;P1;durP1;ratioP1;P2;durP2;ratioP2
63012;SDS011;62113;45.624;11.700;2023-05-07T00:01:48;15.40;;;8.27;;
63012;SDS011;62113;45.624;11.700;2023-05-07T00:04:14;11.97;;;7.83;;
63012;SDS011;62113;45.624;11.700;2023-05-07T00:06:39;12.27;;;7.93;;
63012;SDS011;62113;45.624;11.700;2023-05-07T00:09:05;12.30;;;8.73;;
63012;SDS011;62113;45.624;11.700;2023-05-07T00:11:31;10.65;;;7.60;;
63012;SDS011;62113;45.624;11.700;2023-05-07T00:13:57;12.43;;;8.55;;
63012;SDS011;62113;45.624;11.700;2023-05-07T00:16:23;10.63;;;8.57;;
63012;SDS011;62113;45.624;11.700;2023-05-07T00:18:48;12.70;;;8.80;;
63012;SDS011;62113;45.624;11.700;2023-05-07T00:21:14;9.70;;;8.73;;
63012;SDS011;62113;45.624;11.700;2023-05-07T00:23:40;11.20;;;9.30;;
63012;SDS011;62113;45.624;11.700;2023-05-07T00:26:05;15.00;;;9.53;;
63012;SDS011;62113;45.624;11.700;2023-05-07T00:28:31;13.93;;;8.93;;
63012;SDS011;62113;45.624;11.700;2023-05-07T00:30:57;14.60;;;8.20;;
63012;SDS011;62113;45.624;11.700;2023-05-07T00:33:22;11.57;;;8.10;;
63012;SDS011;62113;45.624;11.700;2023-05-07T00:35:48;11.87;;;9.03;;
63012;SDS011;62113;45.624;11.700;2023-05-07T00:38:14;11.77;;;8.60;;
63012;SDS011;62113;45.624;11.700;2023-05-07T00:40:40;11.23;;;8.97;;
63012;SDS011;62113;45.624;11.700;2023-05-07T00:43:06;12.97;;;9.00;;
63012;SDS011;62113;45.624;11.700;2023-05-07T00:45:32;18.20;;;10.17;;
63012;SDS011;62113;45.624;11.700;2023-05-07T00:48:01;11.48;;;9.27;;
63012;SDS011;62113;45.624;11.700;2023-05-07T00:50:28;12.95;;;8.25;;
63012;SDS011;62113;45.624;11.700;2023-05-07T00:55:21;12.43;;;9.05;;
63012;SDS011;62113;45.624;11.700;2023-05-07T00:57:47;11.43;;;9.55;;
63012;SDS011;62113;45.624;11.700;2023-05-07T01:00:14;12.13;;;9.82;;
63012;SDS011;62113;45.624;11.700;2023-05-07T01:02:40;17.47;;;9.50;;
63012;SDS011;62113;45.624;11.700;2023-05-07T01:05:06;13.63;;;9.80;;
63012;SDS011;62113;45.624;11.700;2023-05-07T01:07:34;14.00;;;10.13;;
63012;SDS011;62113;45.624;11.700;2023-05-07T01:10:02;12.48;;;9.25;;
63012;SDS011;62113;45.624;11.700;2023-05-07T01:12:29;17.13;;;10.45;;
63012;SDS011;62113;45.624;11.700;2023-05-07T01:14:55;15.90;;;10.25;;
63012;SDS011;62113;45.624;11.700;2023-05-07T01:17:22;13.13;;;10.00;;
63012;SDS011;62113;45.624;11.700;2023-05-07T01:19:48;14.95;;;10.43;;
63012;SDS011;62113;45.624;11.700;2023-05-07T01:22:15;16.77;;;10.20;;
63012;SDS011;62113;45.624;11.700;2023-05-07T01:24:45;15.15;;;10.60;;
63012;SDS011;62113;45.624;11.700;2023-05-07T01:27:11;14.77;;;10.27;;
63012;SDS011;62113;45.624;11.700;2023-05-07T01:29:36;14.50;;;10.43;;
63012;SDS011;62113;45.624;11.700;2023-05-07T01:32:02;12.77;;;10.27;;
63012;SDS011;62113;45.624;11.700;2023-05-07T01:34:30;14.88;;;11.25;;
63012;SDS011;62113;45.624;11.700;2023-05-07T01:36:57;13.30;;;10.82;;
63012;SDS011;62113;45.624;11.700;2023-05-07T01:39:25;16.83;;;10.77;;
63012;SDS011;62113;45.624;11.700;2023-05-07T01:41:54;14.20;;;10.30;;
63012;SDS011;62113;45.624;11.700;2023-05-07T01:44:21;15.93;;;11.63;;
63012;SDS011;62113;45.624;11.700;2023-05-07T01:46:47;15.63;;;10.50;;
63012;SDS011;62113;45.624;11.700;2023-05-07T01:49:13;12.63;;;10.33;;
63012;SDS011;62113;45.624;11.700;2023-05-07T01:51:39;14.27;;;10.70;;
63012;SDS011;62113;45.624;11.700;2023-05-07T01:54:05;14.57;;;10.38;;
63012;SDS011;62113;45.624;11.700;2023-05-07T01:56:31;16.35;;;9.77;;
63012;SDS011;62113;45.624;11.700;2023-05-07T01:58:57;21.03;;;12.10;;
63012;SDS011;62113;45.624;11.700;2023-05-07T02:01:22;16.40;;;10.53;;
63012;SDS011;62113;45.624;11.700;2023-05-07T02:03:48;11.70;;;10.50;;
63012;SDS011;62113;45.624;11.700;2023-05-07T02:06:14;11.30;;;9.82;;
63012;SDS011;62113;45.624;11.700;2023-05-07T02:08:40;14.53;;;11.17;;
63012;SDS011;62113;45.624;11.700;2023-05-07T02:11:05;16.27;;;10.53;;
63012;SDS011;62113;45.624;11.700;2023-05-07T02:13:32;13.57;;;10.07;;
63012;SDS011;62113;45.624;11.700;2023-05-07T02:15:59;15.57;;;10.70;;
63012;SDS011;62113;45.624;11.700;2023-05-07T02:18:24;13.77;;;10.53;;
63012;SDS011;62113;45.624;11.700;2023-05-07T02:20:50;16.90;;;11.87;;
63012;SDS011;62113;45.624;11.700;2023-05-07T02:23:16;14.27;;;10.03;;
63012;SDS011;62113;45.624;11.700;2023-05-07T02:25:41;17.97;;;11.27;;
63012;SDS011;62113;45.624;11.700;2023-05-07T02:28:07;13.60;;;9.90;;
63012;SDS011;62113;45.624;11.700;2023-05-07T02:30:32;14.50;;;10.53;;
63012;SDS011;62113;45.624;11.700;2023-05-07T02:32:58;14.27;;;10.53;;
63012;SDS011;62113;45.624;11.700;2023-05-07T02:35:24;16.60;;;9.77;;
63012;SDS011;62113;45.624;11.700;2023-05-07T02:37:50;14.40;;;11.45;;
63012;SDS011;62113;45.624;11.700;2023-05-07T02:40:16;13.70;;;10.43;;
63012;SDS011;62113;45.624;11.700;2023-05-07T02:42:42;18.57;;;10.50;;
63012;SDS011;62113;45.624;11.700;2023-05-07T02:45:08;13.83;;;10.43;;
63012;SDS011;62113;45.624;11.700;2023-05-07T02:47:34;13.07;;;10.43;;
63012;SDS011;62113;45.624;11.700;2023-05-07T02:49:59;16.67;;;10.23;;
63012;SDS011;62113;45.624;11.700;2023-05-07T02:52:25;18.40;;;10.27;;
63012;SDS011;62113;45.624;11.700;2023-05-07T02:54:50;16.30;;;10.43;;
63012;SDS011;62113;45.624;11.700;2023-05-07T02:57:16;19.13;;;10.10;;
63012;SDS011;62113;45.624;11.700;2023-05-07T02:59:42;11.47;;;9.67;;
63012;SDS011;62113;45.624;11.700;2023-05-07T03:02:08;19.45;;;10.50;;
63012;SDS011;62113;45.624;11.700;2023-05-07T03:04:33;18.67;;;9.83;;
63012;SDS011;62113;45.624;11.700;2023-05-07T03:06:59;13.93;;;10.47;;
63012;SDS011;62113;45.624;11.700;2023-05-07T03:09:25;14.77;;;10.17;;
63012;SDS011;62113;45.624;11.700;2023-05-07T03:11:51;15.50;;;9.77;;
63012;SDS011;62113;45.624;11.700;2023-05-07T03:14:16;13.57;;;9.20;;
63012;SDS011;62113;45.624;11.700;2023-05-07T03:16:42;15.73;;;10.07;;
63012;SDS011;62113;45.624;11.700;2023-05-07T03:19:07;14.80;;;10.27;;
63012;SDS011;62113;45.624;11.700;2023-05-07T03:21:33;12.80;;;10.73;;
63012;SDS011;62113;45.624;11.700;2023-05-07T03:23:59;10.63;;;9.53;;
63012;SDS011;62113;45.624;11.700;2023-05-07T03:26:25;17.58;;;10.10;;
63012;SDS011;62113;45.624;11.700;2023-05-07T03:28:51;17.93;;;9.87;;
63012;SDS011;62113;45.624;11.700;2023-05-07T03:31:16;17.10;;;11.37;;
63012;SDS011;62113;45.624;11.700;2023-05-07T03:33:52;14.50;;;10.43;;
63012;SDS011;62113;45.624;11.700;2023-05-07T03:36:19;16.00;;;10.68;;
63012;SDS011;62113;45.624;11.700;2023-05-07T03:38:45;18.65;;;11.27;;
63012;SDS011;62113;45.624;11.700;2023-05-07T03:41:11;17.70;;;10.30;;
63012;SDS011;62113;45.624;11.700;2023-05-07T03:43:37;18.77;;;10.77;;
63012;SDS011;62113;45.624;11.700;2023-05-07T03:46:02;15.57;;;10.33;;
63012;SDS011;62113;45.624;11.700;2023-05-07T03:48:28;12.80;;;9.43;;
63012;SDS011;62113;45.624;11.700;2023-05-07T03:50:53;14.97;;;10.03;;
63012;SDS011;62113;45.624;11.700;2023-05-07T03:53:19;17.17;;;10.13;;
63012;SDS011;62113;45.624;11.700;2023-05-07T03:55:44;14.40;;;10.30;;
63012;SDS011;62113;45.624;11.700;2023-05-07T03:58:10;13.83;;;9.70;;
63012;SDS011;62113;45.624;11.700;2023-05-07T04:00:36;14.17;;;9.73;;
63012;SDS011;62113;45.624;11.700;2023-05-07T04:03:03;17.33;;;10.05;;
63012;SDS011;62113;45.624;11.700;2023-05-07T04:05:30;10.52;;;9.40;;
63012;SDS011;62113;45.624;11.700;2023-05-07T04:07:57;12.38;;;9.27;;
63012;SDS011;62113;45.624;11.700;2023-05-07T04:10:23;12.43;;;10.25;;
63012;SDS011;62113;45.624;11.700;2023-05-07T04:12:49;15.47;;;10.00;;
63012;SDS011;62113;45.624;11.700;2023-05-07T04:15:14;17.47;;;9.93;;
63012;SDS011;62113;45.624;11.700;2023-05-07T04:17:40;14.83;;;9.90;;
63012;SDS011;62113;45.624;11.700;2023-05-07T04:20:08;11.57;;;10.30;;
63012;SDS011;62113;45.624;11.700;2023-05-07T04:22:35;15.55;;;10.48;;
63012;SDS011;62113;45.624;11.700;2023-05-07T04:25:01;14.70;;;10.37;;
63012;SDS011;62113;45.624;11.700;2023-05-07T04:27:27;14.48;;;11.52;;
63012;SDS011;62113;45.624;11.700;2023-05-07T04:29:53;18.47;;;11.60;;
63012;SDS011;62113;45.624;11.700;2023-05-07T04:32:21;20.92;;;12.05;;
63012;SDS011;62113;45.624;11.700;2023-05-07T04:34:47;23.45;;;13.15;;
63012;SDS011;62113;45.624;11.700;2023-05-07T04:37:12;17.60;;;12.27;;
63012;SDS011;62113;45.624;11.700;2023-05-07T04:39:38;21.80;;;12.03;;
63012;SDS011;62113;45.624;11.700;2023-05-07T04:42:04;15.23;;;11.57;;
63012;SDS011;62113;45.624;11.700;2023-05-07T04:44:32;15.43;;;12.05;;
63012;SDS011;62113;45.624;11.700;2023-05-07T04:49:24;16.67;;;11.93;;
63012;SDS011;62113;45.624;11.700;2023-05-07T04:51:50;16.70;;;11.70;;
63012;SDS011;62113;45.624;11.700;2023-05-07T04:54:16;16.90;;;10.93;;
63012;SDS011;62113;45.624;11.700;2023-05-07T04:56:41;18.17;;;11.83;;
63012;SDS011;62113;45.624;11.700;2023-05-07T04:59:07;20.10;;;11.57;;
63012;SDS011;62113;45.624;11.700;2023-05-07T05:01:33;21.60;;;11.37;;
63012;SDS011;62113;45.624;11.700;2023-05-07T05:03:58;19.80;;;11.50;;
63012;SDS011;62113;45.624;11.700;2023-05-07T05:06:25;15.05;;;11.02;;
63012;SDS011;62113;45.624;11.700;2023-05-07T05:08:50;11.23;;;9.87;;
63012;SDS011;62113;45.624;11.700;2023-05-07T05:11:16;15.00;;;11.90;;
63012;SDS011;62113;45.624;11.700;2023-05-07T05:13:42;16.97;;;10.80;;
63012;SDS011;62113;45.624;11.700;2023-05-07T05:16:07;19.43;;;11.20;;
63012;SDS011;62113;45.624;11.700;2023-05-07T05:18:33;15.83;;;11.20;;
63012;SDS011;62113;45.624;11.700;2023-05-07T05:20:59;21.58;;;15.63;;
63012;SDS011;62113;45.624;11.700;2023-05-07T05:23:25;16.73;;;12.77;;
63012;SDS011;62113;45.624;11.700;2023-05-07T05:25:54;14.77;;;11.80;;
63012;SDS011;62113;45.624;11.700;2023-05-07T05:28:21;14.70;;;11.15;;
63012;SDS011;62113;45.624;11.700;2023-05-07T05:30:46;19.33;;;9.93;;
63012;SDS011;62113;45.624;11.700;2023-05-07T05:33:12;13.83;;;10.47;;
63012;SDS011;62113;45.624;11.700;2023-05-07T05:35:38;13.20;;;9.80;;
63012;SDS011;62113;45.624;11.700;2023-05-07T05:38:03;15.73;;;11.47;;
63012;SDS011;62113;45.624;11.700;2023-05-07T05:40:29;13.37;;;10.10;;
63012;SDS011;62113;45.624;11.700;2023-05-07T05:42:55;12.23;;;10.00;;
63012;SDS011;62113;45.624;11.700;2023-05-07T05:45:20;17.02;;;10.25;;
63012;SDS011;62113;45.624;11.700;2023-05-07T05:47:46;11.30;;;9.00;;
63012;SDS011;62113;45.624;11.700;2023-05-07T05:50:12;13.60;;;9.17;;
63012;SDS011;62113;45.624;11.700;2023-05-07T05:52:37;14.87;;;9.00;;
63012;SDS011;62113;45.624;11.700;2023-05-07T05:55:03;12.23;;;8.67;;
63012;SDS011;62113;45.624;11.700;2023-05-07T05:57:29;14.73;;;8.40;;
63012;SDS011;62113;45.624;11.700;2023-05-07T05:59:55;19.55;;;8.25;;
63012;SDS011;62113;45.624;11.700;2023-05-07T06:02:21;12.67;;;7.80;;
63012;SDS011;62113;45.624;11.700;2023-05-07T06:04:46;10.27;;;7.10;;
63012;SDS011;62113;45.624;11.700;2023-05-07T06:07:12;15.00;;;6.37;;
63012;SDS011;62113;45.624;11.700;2023-05-07T06:09:37;14.57;;;6.50;;
63012;SDS011;62113;45.624;11.700;2023-05-07T06:12:03;12.57;;;6.57;;
63012;SDS011;62113;45.624;11.700;2023-05-07T06:14:29;9.23;;;5.28;;
63012;SDS011;62113;45.624;11.700;2023-05-07T06:16:54;6.82;;;4.40;;
63012;SDS011;62113;45.624;11.700;2023-05-07T06:19:20;10.43;;;5.18;;
63012;SDS011;62113;45.624;11.700;2023-05-07T06:21:48;9.90;;;5.80;;
63012;SDS011;62113;45.624;11.700;2023-05-07T06:24:14;8.02;;;5.43;;
63012;SDS011;62113;45.624;11.700;2023-05-07T06:26:40;8.98;;;5.20;;
63012;SDS011;62113;45.624;11.700;2023-05-07T06:29:06;11.65;;;5.63;;
63012;SDS011;62113;45.624;11.700;2023-05-07T06:31:31;12.38;;;5.70;;
63012;SDS011;62113;45.624;11.700;2023-05-07T06:33:57;9.40;;;5.00;;
63012;SDS011;62113;45.624;11.700;2023-05-07T06:36:24;12.05;;;5.30;;
63012;SDS011;62113;45.624;11.700;2023-05-07T06:38:49;9.35;;;5.18;;
63012;SDS011;62113;45.624;11.700;2023-05-07T06:41:15;6.55;;;4.47;;
63012;SDS011;62113;45.624;11.700;2023-05-07T06:46:25;13.27;;;4.95;;
63012;SDS011;62113;45.624;11.700;2023-05-07T06:48:51;8.63;;;5.03;;
63012;SDS011;62113;45.624;11.700;2023-05-07T06:51:17;9.13;;;5.15;;
63012;SDS011;62113;45.624;11.700;2023-05-07T06:53:43;8.57;;;4.57;;
63012;SDS011;62113;45.624;11.700;2023-05-07T06:56:08;8.32;;;5.30;;
63012;SDS011;62113;45.624;11.700;2023-05-07T06:58:34;5.63;;;4.63;;
63012;SDS011;62113;45.624;11.700;2023-05-07T07:03:25;9.02;;;4.75;;
63012;SDS011;62113;45.624;11.700;2023-05-07T07:05:52;7.05;;;4.50;;
63012;SDS011;62113;45.624;11.700;2023-05-07T07:08:18;6.78;;;3.92;;
63012;SDS011;62113;45.624;11.700;2023-05-07T07:10:46;7.22;;;4.22;;
63012;SDS011;62113;45.624;11.700;2023-05-07T07:15:37;8.05;;;4.13;;
63012;SDS011;62113;45.624;11.700;2023-05-07T07:18:03;12.65;;;5.07;;
63012;SDS011;62113;45.624;11.700;2023-05-07T07:22:54;4.90;;;4.40;;
63012;SDS011;62113;45.624;11.700;2023-05-07T07:27:45;8.30;;;4.22;;
63012;SDS011;62113;45.624;11.700;2023-05-07T07:32:37;4.75;;;3.67;;
63012;SDS011;62113;45.624;11.700;2023-05-07T07:37:28;5.15;;;3.83;;
63012;SDS011;62113;45.624;11.700;2023-05-07T07:39:54;8.02;;;3.80;;
63012;SDS011;62113;45.624;11.700;2023-05-07T07:42:20;5.50;;;4.78;;
63012;SDS011;62113;45.624;11.700;2023-05-07T07:44:46;9.60;;;4.13;;
63012;SDS011;62113;45.624;11.700;2023-05-07T07:47:11;7.43;;;4.30;;
63012;SDS011;62113;45.624;11.700;2023-05-07T07:49:37;6.68;;;4.97;;
63012;SDS011;62113;45.624;11.700;2023-05-07T07:52:02;6.13;;;4.90;;
63012;SDS011;62113;45.624;11.700;2023-05-07T07:56:54;9.73;;;5.38;;
63012;SDS011;62113;45.624;11.700;2023-05-07T07:59:19;7.53;;;4.13;;
63012;SDS011;62113;45.624;11.700;2023-05-07T08:01:45;5.60;;;4.45;;
63012;SDS011;62113;45.624;11.700;2023-05-07T08:04:13;8.40;;;5.32;;
63012;SDS011;62113;45.624;11.700;2023-05-07T08:06:38;8.20;;;6.00;;
63012;SDS011;62113;45.624;11.700;2023-05-07T08:09:04;6.10;;;5.30;;
63012;SDS011;62113;45.624;11.700;2023-05-07T08:11:30;7.90;;;4.72;;
63012;SDS011;62113;45.624;11.700;2023-05-07T08:13:55;7.22;;;5.30;;
63012;SDS011;62113;45.624;11.700;2023-05-07T08:16:21;9.65;;;5.28;;
63012;SDS011;62113;45.624;11.700;2023-05-07T08:18:47;7.10;;;5.20;;
63012;SDS011;62113;45.624;11.700;2023-05-07T08:21:12;6.68;;;5.70;;
63012;SDS011;62113;45.624;11.700;2023-05-07T08:23:38;6.65;;;5.45;;
63012;SDS011;62113;45.624;11.700;2023-05-07T08:26:03;7.95;;;6.53;;
63012;SDS011;62113;45.624;11.700;2023-05-07T08:28:29;6.72;;;5.60;;
63012;SDS011;62113;45.624;11.700;2023-05-07T08:30:55;10.43;;;5.43;;
63012;SDS011;62113;45.624;11.700;2023-05-07T08:33:21;6.95;;;5.53;;
63012;SDS011;62113;45.624;11.700;2023-05-07T08:35:47;12.55;;;5.47;;
63012;SDS011;62113;45.624;11.700;2023-05-07T08:38:13;8.07;;;5.63;;
63012;SDS011;62113;45.624;11.700;2023-05-07T08:40:38;9.70;;;5.33;;
63012;SDS011;62113;45.624;11.700;2023-05-07T08:43:06;7.05;;;5.88;;
63012;SDS011;62113;45.624;11.700;2023-05-07T08:45:32;11.23;;;5.20;;
63012;SDS011;62113;45.624;11.700;2023-05-07T08:47:59;8.65;;;5.28;;
63012;SDS011;62113;45.624;11.700;2023-05-07T08:50:27;6.53;;;5.70;;
63012;SDS011;62113;45.624;11.700;2023-05-07T08:52:53;5.93;;;4.82;;
63012;SDS011;62113;45.624;11.700;2023-05-07T08:55:19;6.93;;;5.57;;
63012;SDS011;62113;45.624;11.700;2023-05-07T08:57:45;4.68;;;4.15;;
63012;SDS011;62113;45.624;11.700;2023-05-07T09:00:13;9.75;;;4.63;;
63012;SDS011;62113;45.624;11.700;2023-05-07T09:02:39;4.82;;;4.32;;
63012;SDS011;62113;45.624;11.700;2023-05-07T09:05:05;6.40;;;5.00;;
63012;SDS011;62113;45.624;11.700;2023-05-07T09:07:31;6.72;;;4.60;;
63012;SDS011;62113;45.624;11.700;2023-05-07T09:09:56;6.83;;;5.20;;
63012;SDS011;62113;45.624;11.700;2023-05-07T09:12:22;5.15;;;4.68;;
63012;SDS011;62113;45.624;11.700;2023-05-07T09:14:48;7.28;;;4.38;;
63012;SDS011;62113;45.624;11.700;2023-05-07T09:17:15;4.70;;;4.15;;
63012;SDS011;62113;45.624;11.700;2023-05-07T09:19:42;9.73;;;6.00;;
63012;SDS011;62113;45.624;11.700;2023-05-07T09:22:09;9.98;;;5.57;;
63012;SDS011;62113;45.624;11.700;2023-05-07T09:24:34;8.48;;;6.65;;
63012;SDS011;62113;45.624;11.700;2023-05-07T09:27:03;8.77;;;6.60;;
63012;SDS011;62113;45.624;11.700;2023-05-07T09:29:29;9.05;;;5.65;;
63012;SDS011;62113;45.624;11.700;2023-05-07T09:32:00;9.07;;;6.97;;
63012;SDS011;62113;45.624;11.700;2023-05-07T09:34:30;8.52;;;5.15;;
63012;SDS011;62113;45.624;11.700;2023-05-07T09:36:55;10.73;;;7.47;;
63012;SDS011;62113;45.624;11.700;2023-05-07T09:39:23;9.13;;;5.82;;
63012;SDS011;62113;45.624;11.700;2023-05-07T09:41:49;12.70;;;7.00;;
63012;SDS011;62113;45.624;11.700;2023-05-07T09:44:16;13.55;;;5.72;;
63012;SDS011;62113;45.624;11.700;2023-05-07T09:46:42;6.80;;;5.93;;
63012;SDS011;62113;45.624;11.700;2023-05-07T09:49:12;9.88;;;6.88;;
63012;SDS011;62113;45.624;11.700;2023-05-07T09:51:46;11.93;;;6.40;;
63012;SDS011;62113;45.624;11.700;2023-05-07T09:54:14;11.27;;;6.00;;
63012;SDS011;62113;45.624;11.700;2023-05-07T09:56:42;12.63;;;7.07;;
63012;SDS011;62113;45.624;11.700;2023-05-07T09:59:12;7.97;;;6.93;;
63012;SDS011;62113;45.624;11.700;2023-05-07T10:01:40;7.30;;;6.57;;
63012;SDS011;62113;45.624;11.700;2023-05-07T10:04:07;7.82;;;7.10;;
63012;SDS011;62113;45.624;11.700;2023-05-07T10:06:34;8.00;;;7.00;;
63012;SDS011;62113;45.624;11.700;2023-05-07T10:09:00;9.50;;;7.10;;
63012;SDS011;62113;45.624;11.700;2023-05-07T10:11:27;8.02;;;6.85;;
63012;SDS011;62113;45.624;11.700;2023-05-07T10:13:53;11.65;;;9.50;;
63012;SDS011;62113;45.624;11.700;2023-05-07T10:16:19;8.15;;;6.10;;
63012;SDS011;62113;45.624;11.700;2023-05-07T10:18:45;9.75;;;5.57;;
63012;SDS011;62113;45.624;11.700;2023-05-07T10:23:45;8.07;;;6.43;;
63012;SDS011;62113;45.624;11.700;2023-05-07T10:26:43;9.30;;;6.32;;
63012;SDS011;62113;45.624;11.700;2023-05-07T10:29:53;6.95;;;6.30;;
63012;SDS011;62113;45.624;11.700;2023-05-07T10:32:19;14.63;;;7.50;;
63012;SDS011;62113;45.624;11.700;2023-05-07T10:34:57;6.18;;;5.53;;
63012;SDS011;62113;45.624;11.700;2023-05-07T10:37:25;10.10;;;7.30;;
63012;SDS011;62113;45.624;11.700;2023-05-07T10:39:51;9.82;;;7.63;;
63012;SDS011;62113;45.624;11.700;2023-05-07T10:42:17;9.02;;;6.35;;
63012;SDS011;62113;45.624;11.700;2023-05-07T10:44:43;9.98;;;6.97;;
63012;SDS011;62113;45.624;11.700;2023-05-07T10:47:09;7.88;;;6.90;;
63012;SDS011;62113;45.624;11.700;2023-05-07T10:52:15;9.43;;;6.90;;
63012;SDS011;62113;45.624;11.700;2023-05-07T10:57:46;8.77;;;7.20;;
63012;SDS011;62113;45.624;11.700;2023-05-07T11:05:28;11.60;;;6.25;;
63012;SDS011;62113;45.624;11.700;2023-05-07T11:07:56;15.60;;;6.90;;
63012;SDS011;62113;45.624;11.700;2023-05-07T11:10:47;9.02;;;6.07;;
63012;SDS011;62113;45.624;11.700;2023-05-07T11:13:14;10.65;;;5.70;;
63012;SDS011;62113;45.624;11.700;2023-05-07T11:15:42;16.52;;;6.47;;
63012;SDS011;62113;45.624;11.700;2023-05-07T11:18:13;7.72;;;6.72;;
63012;SDS011;62113;45.624;11.700;2023-05-07T11:25:59;9.63;;;5.78;;
63012;SDS011;62113;45.624;11.700;2023-05-07T11:28:27;7.82;;;5.78;;
63012;SDS011;62113;45.624;11.700;2023-05-07T11:30:53;6.72;;;6.03;;
63012;SDS011;62113;45.624;11.700;2023-05-07T11:33:20;6.72;;;5.82;;
63012;SDS011;62113;45.624;11.700;2023-05-07T11:35:46;12.02;;;6.45;;
63012;SDS011;62113;45.624;11.700;2023-05-07T11:38:12;8.88;;;5.55;;
63012;SDS011;62113;45.624;11.700;2023-05-07T11:43:13;7.20;;;5.72;;
63012;SDS011;62113;45.624;11.700;2023-05-07T11:45:39;12.10;;;6.20;;
63012;SDS011;62113;45.624;11.700;2023-05-07T11:48:05;7.93;;;5.57;;
63012;SDS011;62113;45.624;11.700;2023-05-07T11:50:30;6.43;;;5.80;;
63012;SDS011;62113;45.624;11.700;2023-05-07T11:52:56;9.68;;;7.45;;
63012;SDS011;62113;45.624;11.700;2023-05-07T11:55:21;13.27;;;5.65;;
63012;SDS011;62113;45.624;11.700;2023-05-07T11:57:49;12.95;;;6.03;;
63012;SDS011;62113;45.624;11.700;2023-05-07T12:00:15;8.43;;;6.22;;
63012;SDS011;62113;45.624;11.700;2023-05-07T12:02:42;8.27;;;6.60;;
63012;SDS011;62113;45.624;11.700;2023-05-07T12:05:09;8.32;;;6.55;;
63012;SDS011;62113;45.624;11.700;2023-05-07T12:07:35;13.47;;;7.23;;
63012;SDS011;62113;45.624;11.700;2023-05-07T12:10:04;10.98;;;6.53;;
63012;SDS011;62113;45.624;11.700;2023-05-07T12:12:31;9.63;;;7.05;;
63012;SDS011;62113;45.624;11.700;2023-05-07T12:15:04;8.48;;;6.75;;
63012;SDS011;62113;45.624;11.700;2023-05-07T12:17:29;11.63;;;8.65;;
63012;SDS011;62113;45.624;11.700;2023-05-07T12:19:55;9.30;;;8.18;;
63012;SDS011;62113;45.624;11.700;2023-05-07T12:22:21;12.95;;;7.40;;
63012;SDS011;62113;45.624;11.700;2023-05-07T12:24:48;12.25;;;7.90;;
63012;SDS011;62113;45.624;11.700;2023-05-07T12:27:15;11.52;;;7.88;;
63012;SDS011;62113;45.624;11.700;2023-05-07T12:32:15;15.23;;;8.80;;
63012;SDS011;62113;45.624;11.700;2023-05-07T12:34:44;8.68;;;7.03;;
63012;SDS011;62113;45.624;11.700;2023-05-07T12:37:11;9.57;;;7.25;;
63012;SDS011;62113;45.624;11.700;2023-05-07T12:39:38;9.80;;;6.95;;
63012;SDS011;62113;45.624;11.700;2023-05-07T12:42:09;7.97;;;7.15;;
63012;SDS011;62113;45.624;11.700;2023-05-07T12:44:51;11.23;;;7.28;;
63012;SDS011;62113;45.624;11.700;2023-05-07T12:47:17;11.05;;;7.47;;
63012;SDS011;62113;45.624;11.700;2023-05-07T12:49:42;12.88;;;8.10;;
63012;SDS011;62113;45.624;11.700;2023-05-07T12:52:10;10.27;;;7.82;;
63012;SDS011;62113;45.624;11.700;2023-05-07T12:54:37;9.77;;;8.77;;
63012;SDS011;62113;45.624;11.700;2023-05-07T12:57:09;11.00;;;8.20;;
63012;SDS011;62113;45.624;11.700;2023-05-07T12:59:41;13.48;;;9.00;;
63012;SDS011;62113;45.624;11.700;2023-05-07T13:02:08;9.93;;;7.10;;
63012;SDS011;62113;45.624;11.700;2023-05-07T13:04:34;11.13;;;8.82;;
63012;SDS011;62113;45.624;11.700;2023-05-07T13:07:01;14.18;;;9.35;;
63012;SDS011;62113;45.624;11.700;2023-05-07T13:09:27;8.75;;;7.57;;
63012;SDS011;62113;45.624;11.700;2023-05-07T13:11:56;14.70;;;8.63;;
63012;SDS011;62113;45.624;11.700;2023-05-07T13:14:24;9.93;;;8.82;;
63012;SDS011;62113;45.624;11.700;2023-05-07T13:16:50;13.90;;;7.87;;
63012;SDS011;62113;45.624;11.700;2023-05-07T13:19:16;10.90;;;7.75;;
63012;SDS011;62113;45.624;11.700;2023-05-07T13:26:33;7.97;;;7.00;;
63012;SDS011;62113;45.624;11.700;2023-05-07T13:28:59;12.30;;;8.63;;
63012;SDS011;62113;45.624;11.700;2023-05-07T13:31:24;7.97;;;6.97;;
63012;SDS011;62113;45.624;11.700;2023-05-07T13:33:50;10.47;;;8.47;;
63012;SDS011;62113;45.624;11.700;2023-05-07T13:36:16;14.52;;;7.20;;
63012;SDS011;62113;45.624;11.700;2023-05-07T13:38:41;12.30;;;7.00;;
63012;SDS011;62113;45.624;11.700;2023-05-07T13:41:07;8.37;;;6.40;;
63012;SDS011;62113;45.624;11.700;2023-05-07T13:43:33;8.07;;;7.28;;
63012;SDS011;62113;45.624;11.700;2023-05-07T13:45:58;8.60;;;7.37;;
63012;SDS011;62113;45.624;11.700;2023-05-07T13:48:25;10.23;;;8.35;;
63012;SDS011;62113;45.624;11.700;2023-05-07T13:50:50;11.02;;;8.13;;
63012;SDS011;62113;45.624;11.700;2023-05-07T13:53:16;9.43;;;7.43;;
63012;SDS011;62113;45.624;11.700;2023-05-07T13:55:43;10.52;;;7.72;;
63012;SDS011;62113;45.624;11.700;2023-05-07T13:58:09;10.38;;;8.02;;
63012;SDS011;62113;45.624;11.700;2023-05-07T14:00:35;9.90;;;7.68;;
63012;SDS011;62113;45.624;11.700;2023-05-07T14:03:01;12.43;;;8.60;;
63012;SDS011;62113;45.624;11.700;2023-05-07T14:05:26;11.35;;;7.40;;
63012;SDS011;62113;45.624;11.700;2023-05-07T14:07:53;37.00;;;9.20;;
63012;SDS011;62113;45.624;11.700;2023-05-07T14:10:22;13.75;;;6.93;;
63012;SDS011;62113;45.624;11.700;2023-05-07T14:12:47;13.23;;;8.73;;
63012;SDS011;62113;45.624;11.700;2023-05-07T14:15:13;9.10;;;8.10;;
63012;SDS011;62113;45.624;11.700;2023-05-07T14:17:39;7.47;;;6.78;;
63012;SDS011;62113;45.624;11.700;2023-05-07T14:20:05;8.20;;;7.20;;
63012;SDS011;62113;45.624;11.700;2023-05-07T14:22:32;10.25;;;8.00;;
63012;SDS011;62113;45.624;11.700;2023-05-07T14:24:57;15.18;;;6.57;;
63012;SDS011;62113;45.624;11.700;2023-05-07T14:27:23;8.25;;;6.65;;
63012;SDS011;62113;45.624;11.700;2023-05-07T14:29:48;13.68;;;7.00;;
63012;SDS011;62113;45.624;11.700;2023-05-07T14:32:16;7.88;;;7.07;;
63012;SDS011;62113;45.624;11.700;2023-05-07T14:34:43;14.82;;;8.20;;
63012;SDS011;62113;45.624;11.700;2023-05-07T14:37:09;11.52;;;7.47;;
63012;SDS011;62113;45.624;11.700;2023-05-07T14:39:35;10.23;;;7.72;;
63012;SDS011;62113;45.624;11.700;2023-05-07T14:42:00;8.63;;;7.72;;
63012;SDS011;62113;45.624;11.700;2023-05-07T14:44:26;12.43;;;8.07;;
63012;SDS011;62113;45.624;11.700;2023-05-07T14:46:52;8.97;;;8.07;;
63012;SDS011;62113;45.624;11.700;2023-05-07T14:49:17;9.33;;;8.33;;
63012;SDS011;62113;45.624;11.700;2023-05-07T14:51:44;10.73;;;9.63;;
63012;SDS011;62113;45.624;11.700;2023-05-07T14:54:10;10.48;;;7.90;;
63012;SDS011;62113;45.624;11.700;2023-05-07T14:56:36;10.00;;;7.32;;
63012;SDS011;62113;45.624;11.700;2023-05-07T14:59:02;8.07;;;7.13;;
63012;SDS011;62113;45.624;11.700;2023-05-07T15:06:19;8.00;;;6.30;;
63012;SDS011;62113;45.624;11.700;2023-05-07T15:13:36;14.63;;;5.70;;
63012;SDS011;62113;45.624;11.700;2023-05-07T15:16:02;11.03;;;6.87;;
63012;SDS011;62113;45.624;11.700;2023-05-07T15:18:28;6.25;;;5.55;;
63012;SDS011;62113;45.624;11.700;2023-05-07T15:20:54;6.50;;;5.87;;
63012;SDS011;62113;45.624;11.700;2023-05-07T15:23:20;11.85;;;5.85;;